createdAt,value
2023-01-25T00:01:31.607Z,1.47
2023-01-25T00:03:59.704Z,1.42
2023-01-25T00:06:26.055Z,1.45
2023-01-25T00:08:52.405Z,1.45
2023-01-25T00:11:18.767Z,1.45
2023-01-25T00:13:45.334Z,1.51
2023-01-25T00:16:11.890Z,1.51
2023-01-25T00:18:38.220Z,1.49
2023-01-25T00:21:13.300Z,1.43
2023-01-25T00:23:39.637Z,1.40
2023-01-25T00:26:05.994Z,1.39
2023-01-25T00:28:32.537Z,1.29
2023-01-25T00:30:59.181Z,1.33
2023-01-25T00:33:33.263Z,1.38
2023-01-25T00:36:00.884Z,1.39
2023-01-25T00:38:30.157Z,1.31
2023-01-25T00:40:57.601Z,1.26
2023-01-25T00:43:23.913Z,1.24
2023-01-25T00:45:50.392Z,1.27
2023-01-25T00:48:16.751Z,1.32
2023-01-25T00:50:43.139Z,1.31
2023-01-25T00:53:09.520Z,1.34
2023-01-25T00:55:37.187Z,1.32
2023-01-25T00:58:03.515Z,1.27
2023-01-25T01:00:29.851Z,1.27
2023-01-25T01:02:56.144Z,1.23
2023-01-25T01:05:22.421Z,1.29
2023-01-25T01:07:49.285Z,1.28
2023-01-25T01:10:15.756Z,1.22
2023-01-25T01:12:43.404Z,1.24
2023-01-25T01:15:10.045Z,1.20
2023-01-25T01:17:36.436Z,1.18
2023-01-25T01:20:02.913Z,1.17
2023-01-25T01:22:29.356Z,1.20
2023-01-25T01:24:55.653Z,1.16
2023-01-25T01:27:21.993Z,1.14
2023-01-25T01:29:49.880Z,1.12
2023-01-25T01:32:16.321Z,1.12
2023-01-25T01:34:42.676Z,1.10
2023-01-25T01:37:08.990Z,1.09
2023-01-25T01:39:35.335Z,1.12
2023-01-25T01:42:01.658Z,1.16
2023-01-25T01:44:43.692Z,1.16
2023-01-25T01:47:13.786Z,1.08
2023-01-25T01:49:40.104Z,1.08
2023-01-25T01:52:08.113Z,0.99
2023-01-25T01:54:36.204Z,0.96
2023-01-25T01:57:05.177Z,0.98
2023-01-25T01:59:33.581Z,0.92
2023-01-25T02:01:59.958Z,0.86
2023-01-25T02:04:28.308Z,0.79
2023-01-25T02:06:57.543Z,0.78
2023-01-25T02:09:25.946Z,0.82
2023-01-25T02:11:52.735Z,0.87
2023-01-25T02:14:19.641Z,0.88
2023-01-25T02:16:46.269Z,0.90
2023-01-25T02:19:17.166Z,0.98
2023-01-25T02:21:45.897Z,1.00
2023-01-25T02:24:14.245Z,0.99
2023-01-25T02:26:42.054Z,1.00
2023-01-25T02:29:08.861Z,0.92
2023-01-25T02:31:35.324Z,0.89
2023-01-25T02:34:01.772Z,0.94
2023-01-25T02:36:29.291Z,0.92
2023-01-25T02:38:57.560Z,0.97
2023-01-25T02:41:30.862Z,0.95
2023-01-25T02:43:58.759Z,1.03
2023-01-25T02:46:27.273Z,0.92
2023-01-25T02:48:54.330Z,0.96
2023-01-25T02:51:21.585Z,0.88
2023-01-25T02:53:47.939Z,0.86
2023-01-25T02:56:14.276Z,0.88
2023-01-25T02:58:40.597Z,0.91
2023-01-25T03:01:08.808Z,0.89
2023-01-25T03:03:35.209Z,0.89
2023-01-25T03:06:01.578Z,0.90
2023-01-25T03:08:27.958Z,0.87
2023-01-25T03:10:56.486Z,0.88
2023-01-25T03:13:22.808Z,0.70
2023-01-25T03:15:49.197Z,0.65
2023-01-25T03:18:16.964Z,0.67
2023-01-25T03:20:43.295Z,0.70
2023-01-25T03:23:09.609Z,0.71
2023-01-25T03:25:35.921Z,0.77
2023-01-25T03:28:02.253Z,0.79
2023-01-25T03:30:28.563Z,0.75
2023-01-25T03:32:54.859Z,0.81
2023-01-25T03:35:22.694Z,0.80
2023-01-25T03:37:49.204Z,0.81
2023-01-25T03:40:15.760Z,0.81
2023-01-25T03:42:42.139Z,0.79
2023-01-25T03:45:09.137Z,0.75
2023-01-25T03:47:35.703Z,0.68
2023-01-25T03:50:02.043Z,0.60
2023-01-25T03:52:29.775Z,0.62
2023-01-25T03:54:56.184Z,0.67
2023-01-25T03:57:22.582Z,0.58
2023-01-25T03:59:48.913Z,0.63
2023-01-25T04:02:15.654Z,0.65
2023-01-25T04:04:41.992Z,0.62
2023-01-25T04:07:08.347Z,0.58
2023-01-25T04:09:36.041Z,0.60
2023-01-25T04:12:02.417Z,0.58
2023-01-25T04:14:43.715Z,0.61
2023-01-25T04:17:10.949Z,0.59
2023-01-25T04:19:37.263Z,0.61
2023-01-25T04:22:03.579Z,0.62
2023-01-25T04:24:29.884Z,0.60
2023-01-25T04:26:57.765Z,0.58
2023-01-25T04:29:35.507Z,0.57
2023-01-25T04:32:06.741Z,0.56
2023-01-25T04:34:33.102Z,0.58
2023-01-25T04:36:59.439Z,0.57
2023-01-25T04:39:25.802Z,0.58
2023-01-25T04:41:52.134Z,0.59
2023-01-25T04:44:19.814Z,0.59
2023-01-25T04:46:46.134Z,0.63
2023-01-25T04:49:12.455Z,0.60
2023-01-25T04:51:38.788Z,0.59
2023-01-25T04:54:05.163Z,0.59
2023-01-25T04:56:31.467Z,0.59
2023-01-25T04:58:57.789Z,0.60
2023-01-25T05:01:25.458Z,0.64
2023-01-25T05:03:51.842Z,0.66
2023-01-25T05:06:18.124Z,0.69
2023-01-25T05:08:44.439Z,0.69
2023-01-25T05:11:10.736Z,0.71
2023-01-25T05:13:37.539Z,0.72
2023-01-25T05:16:04.100Z,0.74
2023-01-25T05:18:47.108Z,0.77
2023-01-25T05:21:14.568Z,0.79
2023-01-25T05:23:40.886Z,0.79
2023-01-25T05:26:08.077Z,0.80
2023-01-25T05:28:34.404Z,0.77
2023-01-25T05:31:03.130Z,0.75
2023-01-25T05:33:29.468Z,0.77
2023-01-25T05:35:57.212Z,0.78
2023-01-25T05:38:23.540Z,0.76
2023-01-25T05:40:49.862Z,0.76
2023-01-25T05:43:16.224Z,0.74
2023-01-25T05:45:42.623Z,0.68
2023-01-25T05:48:08.963Z,0.68
2023-01-25T05:50:35.340Z,0.65
2023-01-25T05:53:03.012Z,0.63
2023-01-25T05:55:29.378Z,0.59
2023-01-25T05:57:55.841Z,0.55
2023-01-25T06:00:22.735Z,0.54
2023-01-25T06:02:49.103Z,0.58
2023-01-25T06:05:15.493Z,0.58
2023-01-25T06:07:41.859Z,0.57
2023-01-25T06:10:10.902Z,0.54
2023-01-25T06:12:37.208Z,0.52
2023-01-25T06:15:03.687Z,0.51
2023-01-25T06:17:30.001Z,0.47
2023-01-25T06:19:56.337Z,0.46
2023-01-25T06:22:22.675Z,0.50
2023-01-25T06:24:48.950Z,0.50
2023-01-25T06:27:16.641Z,0.44
2023-01-25T06:29:42.947Z,0.42
2023-01-25T06:32:09.326Z,0.45
2023-01-25T06:34:35.707Z,0.49
2023-01-25T06:37:02.020Z,0.49
2023-01-25T06:39:28.335Z,0.50
2023-01-25T06:41:54.645Z,0.51
2023-01-25T06:44:22.290Z,0.52
2023-01-25T06:46:48.603Z,0.48
2023-01-25T06:49:15.024Z,0.42
2023-01-25T06:51:41.337Z,0.44
2023-01-25T06:54:07.674Z,0.42
2023-01-25T06:56:34.091Z,0.33
2023-01-25T06:59:00.491Z,0.33
2023-01-25T07:01:28.403Z,0.31
2023-01-25T07:03:55.824Z,0.34
2023-01-25T07:06:22.385Z,0.24
2023-01-25T07:08:48.742Z,0.17
2023-01-25T07:11:15.520Z,0.21
2023-01-25T07:13:43.079Z,0.22
2023-01-25T07:16:11.488Z,0.26
2023-01-25T07:18:39.251Z,0.38
2023-01-25T07:21:06.577Z,0.29
2023-01-25T07:23:33.585Z,0.24
2023-01-25T07:26:00.374Z,0.21
2023-01-25T07:28:27.061Z,0.31
2023-01-25T07:30:53.509Z,0.40
2023-01-25T07:33:20.030Z,0.31
2023-01-25T07:35:47.811Z,0.33
2023-01-25T07:38:14.890Z,0.22
2023-01-25T07:40:41.285Z,0.22
2023-01-25T07:43:07.621Z,0.06
2023-01-25T07:45:33.948Z,0.14
2023-01-25T07:48:00.319Z,0.15
2023-01-25T07:50:27.432Z,0.00
2023-01-25T07:52:55.159Z,-0.10
2023-01-25T07:55:21.932Z,-0.11
2023-01-25T07:57:48.245Z,-0.05
2023-01-25T08:00:14.772Z,-0.04
2023-01-25T08:02:41.186Z,-0.03
2023-01-25T08:05:08.238Z,-0.04
2023-01-25T08:07:34.753Z,-0.02
2023-01-25T08:10:02.438Z,-0.04
2023-01-25T08:12:28.787Z,-0.04
2023-01-25T08:14:55.167Z,-0.01
2023-01-25T08:17:21.478Z,0.05
2023-01-25T08:19:47.801Z,0.08
2023-01-25T08:22:14.158Z,0.10
2023-01-25T08:24:40.579Z,0.11
2023-01-25T08:27:08.340Z,0.16
2023-01-25T08:29:34.743Z,0.19
2023-01-25T08:32:01.202Z,0.23
2023-01-25T08:34:27.539Z,0.25
2023-01-25T08:36:53.868Z,0.19
2023-01-25T08:39:20.193Z,0.19
2023-01-25T08:41:46.515Z,0.19
2023-01-25T08:44:14.236Z,0.20
2023-01-25T08:46:40.684Z,0.26
2023-01-25T08:49:07.095Z,0.25
2023-01-25T08:51:33.642Z,0.26
2023-01-25T08:54:01.919Z,0.26
2023-01-25T08:56:28.260Z,0.29
2023-01-25T08:58:54.607Z,0.29
2023-01-25T09:01:22.384Z,0.29
2023-01-25T09:03:49.935Z,0.26
2023-01-25T09:06:16.933Z,0.24
2023-01-25T09:08:43.674Z,0.26
2023-01-25T09:11:11.310Z,0.32
2023-01-25T09:13:37.917Z,0.27
2023-01-25T09:16:05.465Z,0.34
2023-01-25T09:18:33.963Z,0.38
2023-01-25T09:21:00.510Z,0.37
2023-01-25T09:23:26.794Z,0.33
2023-01-25T09:25:56.437Z,0.31
2023-01-25T09:28:22.768Z,0.33
2023-01-25T09:31:14.582Z,0.26
2023-01-25T09:33:44.052Z,0.36
2023-01-25T09:36:10.747Z,0.36
2023-01-25T09:38:37.071Z,0.34
2023-01-25T09:41:12.351Z,0.34
2023-01-25T09:43:50.086Z,0.32
2023-01-25T09:46:20.496Z,0.34
2023-01-25T09:49:06.778Z,0.30
2023-01-25T09:51:42.254Z,0.35
2023-01-25T09:54:09.625Z,0.33
2023-01-25T09:56:37.749Z,0.26
2023-01-25T09:59:05.853Z,0.25
2023-01-25T10:01:39.344Z,0.25
2023-01-25T10:04:11.618Z,0.28
2023-01-25T10:06:40.624Z,0.33
2023-01-25T10:09:17.741Z,0.31
2023-01-25T10:11:45.420Z,0.32
2023-01-25T10:14:14.067Z,0.34
2023-01-25T10:16:44.359Z,0.31
2023-01-25T10:19:17.582Z,0.30
2023-01-25T10:21:45.549Z,0.39
2023-01-25T10:24:30.672Z,0.45
2023-01-25T10:26:57.714Z,0.33
2023-01-25T10:29:26.882Z,0.24
2023-01-25T10:31:54.122Z,0.21
2023-01-25T10:34:23.901Z,0.18
2023-01-25T10:36:54.046Z,0.22
2023-01-25T10:39:20.977Z,0.20
2023-01-25T10:41:49.037Z,0.11
2023-01-25T10:44:15.531Z,0.26
2023-01-25T10:46:44.130Z,0.26
2023-01-25T10:49:19.304Z,0.18
2023-01-25T10:51:47.229Z,0.14
2023-01-25T10:54:14.579Z,0.09
2023-01-25T10:56:41.605Z,-0.01
2023-01-25T10:59:15.123Z,0.02
2023-01-25T11:01:41.886Z,0.00
2023-01-25T11:04:22.090Z,-0.01
2023-01-25T11:06:50.184Z,0.01
2023-01-25T11:09:30.137Z,0.08
2023-01-25T11:11:57.404Z,0.15
2023-01-25T11:14:25.137Z,0.05
2023-01-25T11:16:51.442Z,0.07
2023-01-25T11:19:26.341Z,0.13
2023-01-25T11:21:54.521Z,0.08
2023-01-25T11:24:21.091Z,0.03
2023-01-25T11:26:47.449Z,0.03
2023-01-25T11:29:15.583Z,0.08
2023-01-25T11:31:43.115Z,0.05
2023-01-25T11:34:10.522Z,0.02
2023-01-25T11:36:42.159Z,0.04
2023-01-25T11:39:16.924Z,-0.07
2023-01-25T11:41:52.395Z,-0.03
2023-01-25T11:44:40.172Z,-0.07
2023-01-25T11:47:12.169Z,0.04
2023-01-25T11:49:45.458Z,-0.01
2023-01-25T11:52:19.895Z,-0.01
2023-01-25T11:54:52.280Z,0.06
2023-01-25T11:57:33.473Z,0.11
2023-01-25T12:00:10.625Z,0.14
2023-01-25T12:02:55.747Z,0.18
2023-01-25T12:05:27.561Z,0.24
2023-01-25T12:08:00.045Z,0.15
2023-01-25T12:10:35.160Z,0.20
2023-01-25T12:13:05.246Z,0.22
2023-01-25T12:15:41.999Z,0.30
2023-01-25T12:18:19.574Z,0.26
2023-01-25T12:21:00.965Z,0.24
2023-01-25T12:23:33.573Z,0.25
2023-01-25T12:26:10.481Z,0.22
2023-01-25T12:28:39.582Z,0.16
2023-01-25T12:31:11.254Z,0.15
2023-01-25T12:33:39.839Z,0.08
2023-01-25T12:36:09.227Z,0.14
2023-01-25T12:38:40.011Z,0.12
2023-01-25T12:41:11.811Z,0.14
2023-01-25T12:43:40.500Z,0.21
2023-01-25T12:46:10.678Z,0.25
2023-01-25T12:48:40.219Z,0.20
2023-01-25T12:51:06.583Z,0.24
2023-01-25T12:53:35.700Z,0.25
2023-01-25T12:56:04.467Z,0.27
2023-01-25T12:58:38.115Z,0.27
2023-01-25T13:01:10.378Z,0.27
2023-01-25T13:03:39.129Z,0.20
2023-01-25T13:06:09.629Z,0.18
2023-01-25T13:08:42.242Z,0.11
2023-01-25T13:11:13.366Z,0.20
2023-01-25T13:13:41.125Z,0.25
2023-01-25T13:16:23.358Z,0.30
2023-01-25T13:18:49.779Z,0.33
2023-01-25T13:21:31.058Z,0.34
2023-01-25T13:24:11.104Z,0.35
2023-01-25T13:26:38.648Z,0.35
2023-01-25T13:29:27.295Z,0.32
2023-01-25T13:31:53.932Z,0.31
2023-01-25T13:34:35.186Z,0.36
2023-01-25T13:37:01.580Z,0.33
2023-01-25T13:39:41.839Z,0.31
2023-01-25T13:42:18.105Z,0.19
2023-01-25T13:44:47.399Z,0.10
2023-01-25T13:47:15.401Z,0.06
2023-01-25T13:49:44.814Z,0.07
2023-01-25T13:52:14.456Z,0.06
2023-01-25T13:54:42.934Z,0.10
2023-01-25T13:57:13.497Z,0.14
2023-01-25T13:59:40.771Z,0.18
2023-01-25T14:02:15.885Z,0.18
2023-01-25T14:04:44.002Z,0.18
2023-01-25T14:07:15.571Z,0.22
2023-01-25T14:09:43.113Z,0.18
2023-01-25T14:12:10.420Z,0.24
2023-01-25T14:14:37.052Z,0.24
2023-01-25T14:19:35.866Z,0.27
2023-01-25T14:22:20.257Z,0.24
2023-01-25T14:24:59.251Z,0.25
2023-01-25T14:27:25.575Z,0.27
2023-01-25T14:29:51.911Z,0.23
2023-01-25T14:32:20.405Z,0.22
2023-01-25T14:34:48.180Z,0.17
2023-01-25T14:37:16.017Z,0.19
2023-01-25T14:39:42.337Z,0.15
2023-01-25T14:42:08.875Z,0.08
2023-01-25T14:44:35.354Z,0.13
2023-01-25T14:47:20.474Z,0.15
2023-01-25T14:49:48.139Z,0.12
2023-01-25T14:52:16.457Z,0.11
2023-01-25T14:54:45.707Z,0.13
2023-01-25T14:57:30.823Z,0.12
2023-01-25T14:59:57.376Z,0.10
2023-01-25T15:02:25.949Z,0.13
2023-01-25T15:04:59.191Z,-0.01
2023-01-25T15:07:50.692Z,0.03
2023-01-25T15:10:18.741Z,0.02
2023-01-25T15:12:58.493Z,0.00
2023-01-25T15:15:31.389Z,-0.02
2023-01-25T15:17:57.738Z,-0.04
2023-01-25T15:20:29.276Z,-0.05
2023-01-25T15:22:55.909Z,-0.03
2023-01-25T15:25:24.299Z,-0.08
2023-01-25T15:27:51.285Z,-0.14
2023-01-25T15:30:18.457Z,-0.16
2023-01-25T15:32:45.232Z,-0.17
2023-01-25T15:35:12.610Z,-0.16
2023-01-25T15:37:40.275Z,-0.22
2023-01-25T15:40:07.570Z,-0.20
2023-01-25T15:42:34.033Z,-0.11
2023-01-25T15:45:00.370Z,-0.28
2023-01-25T15:47:26.783Z,-0.38
2023-01-25T15:49:53.096Z,-0.48
2023-01-25T15:52:19.422Z,-0.47
2023-01-25T15:54:55.950Z,-0.52
2023-01-25T15:57:28.806Z,-0.54
2023-01-25T15:59:55.867Z,-0.57
2023-01-25T16:02:22.220Z,-0.49
2023-01-25T16:04:48.633Z,-0.48
2023-01-25T16:07:19.390Z,-0.41
2023-01-25T16:09:49.838Z,-0.48
2023-01-25T16:12:16.179Z,-0.37
2023-01-25T16:14:42.501Z,-0.45
2023-01-25T16:17:15.829Z,-0.43
2023-01-25T16:19:42.126Z,-0.58
2023-01-25T16:22:08.439Z,-0.54
2023-01-25T16:24:34.743Z,-0.57
2023-01-25T16:27:02.406Z,-0.67
2023-01-25T16:29:28.778Z,-0.65
2023-01-25T16:31:55.334Z,-0.61
2023-01-25T16:34:21.777Z,-0.60
2023-01-25T16:36:48.186Z,-0.59
2023-01-25T16:39:15.739Z,-0.56
2023-01-25T16:41:42.089Z,-0.59
2023-01-25T16:44:09.753Z,-0.61
2023-01-25T16:46:36.283Z,-0.72
2023-01-25T16:49:02.590Z,-0.73
2023-01-25T16:51:28.916Z,-0.76
2023-01-25T16:53:56.556Z,-0.75
2023-01-25T16:56:23.748Z,-0.76
2023-01-25T16:58:50.982Z,-0.51
2023-01-25T17:01:19.451Z,-0.67
2023-01-25T17:03:46.475Z,-0.72
2023-01-25T17:06:16.659Z,-0.83
2023-01-25T17:08:43.207Z,-0.84
2023-01-25T17:11:09.733Z,-0.76
2023-01-25T17:13:36.145Z,-0.74
2023-01-25T17:16:02.511Z,-0.57
2023-01-25T17:18:30.308Z,-0.51
2023-01-25T17:20:57.486Z,-0.38
2023-01-25T17:23:23.869Z,-0.53
2023-01-25T17:25:50.232Z,-0.62
2023-01-25T17:28:16.529Z,-0.69
2023-01-25T17:30:42.921Z,-0.60
2023-01-25T17:33:09.303Z,-0.63
2023-01-25T17:35:36.966Z,-0.74
2023-01-25T17:38:03.297Z,-0.59
2023-01-25T17:40:29.622Z,-0.44
2023-01-25T17:42:55.947Z,-0.60
2023-01-25T17:45:22.239Z,-0.77
2023-01-25T17:47:48.535Z,-0.85
2023-01-25T17:50:15.016Z,-0.85
2023-01-25T17:52:42.680Z,-0.84
2023-01-25T17:55:09.130Z,-0.83
2023-01-25T17:57:35.488Z,-0.91
2023-01-25T18:00:02.048Z,-0.88
2023-01-25T18:02:28.571Z,-0.87
2023-01-25T18:04:54.892Z,-0.91
2023-01-25T18:07:21.197Z,-0.92
2023-01-25T18:09:48.937Z,-0.87
2023-01-25T18:12:15.330Z,-0.86
2023-01-25T18:14:41.652Z,-0.87
2023-01-25T18:17:07.981Z,-0.83
2023-01-25T18:19:34.297Z,-0.82
2023-01-25T18:22:00.627Z,-0.79
2023-01-25T18:24:29.795Z,-0.78
2023-01-25T18:27:01.363Z,-0.78
2023-01-25T18:29:42.563Z,-0.75
2023-01-25T18:32:09.007Z,-0.73
2023-01-25T18:34:35.394Z,-0.76
2023-01-25T18:37:01.688Z,-0.71
2023-01-25T18:39:28.057Z,-0.77
2023-01-25T18:41:54.507Z,-0.81
2023-01-25T18:44:22.168Z,-0.77
2023-01-25T18:46:48.480Z,-0.79
2023-01-25T18:49:14.831Z,-0.80
2023-01-25T18:51:59.499Z,-0.82
2023-01-25T18:54:27.439Z,-0.78
2023-01-25T18:56:53.786Z,-0.79
2023-01-25T18:59:20.085Z,-0.77
2023-01-25T19:01:47.851Z,-0.74
2023-01-25T19:04:14.199Z,-0.73
2023-01-25T19:06:40.529Z,-0.81
2023-01-25T19:09:06.849Z,-0.90
2023-01-25T19:11:33.157Z,-0.92
2023-01-25T19:13:59.444Z,-0.98
2023-01-25T19:16:25.858Z,-0.86
2023-01-25T19:18:54.433Z,-0.95
2023-01-25T19:21:21.742Z,-0.98
2023-01-25T19:23:48.081Z,-1.05
2023-01-25T19:26:15.231Z,-1.01
2023-01-25T19:28:42.205Z,-0.97
2023-01-25T19:31:09.512Z,-0.98
2023-01-25T19:33:36.699Z,-0.95
2023-01-25T19:36:05.306Z,-0.96
2023-01-25T19:38:32.132Z,-0.92
2023-01-25T19:41:02.991Z,-0.93
2023-01-25T19:43:29.310Z,-0.95
2023-01-25T19:46:05.608Z,-0.96
2023-01-25T19:48:33.178Z,-0.96
2023-01-25T19:51:07.009Z,-0.94
2023-01-25T19:53:33.316Z,-0.99
2023-01-25T19:56:00.943Z,-0.98
2023-01-25T19:58:27.259Z,-0.97
2023-01-25T20:00:53.581Z,-1.00
2023-01-25T20:03:19.951Z,-1.02
2023-01-25T20:05:46.284Z,-0.99
2023-01-25T20:08:14.000Z,-0.98
2023-01-25T20:10:40.302Z,-1.00
2023-01-25T20:13:08.476Z,-1.00
2023-01-25T20:15:34.844Z,-1.06
2023-01-25T20:18:01.139Z,-1.08
2023-01-25T20:20:27.449Z,-0.96
2023-01-25T20:22:53.741Z,-0.90
2023-01-25T20:25:21.483Z,-1.00
2023-01-25T20:27:47.792Z,-0.97
2023-01-25T20:30:14.262Z,-0.93
2023-01-25T20:32:40.597Z,-1.03
2023-01-25T20:35:07.215Z,-0.90
2023-01-25T20:37:33.524Z,-1.02
2023-01-25T20:39:59.801Z,-1.09
2023-01-25T20:42:27.458Z,-1.14
2023-01-25T20:44:53.783Z,-1.13
2023-01-25T20:47:20.075Z,-1.20
2023-01-25T20:49:46.360Z,-1.16
2023-01-25T20:52:12.685Z,-1.17
2023-01-25T20:54:39.008Z,-1.08
2023-01-25T20:57:05.323Z,-1.19
2023-01-25T20:59:33.120Z,-1.06
2023-01-25T21:01:59.481Z,-1.12
2023-01-25T21:04:25.837Z,-1.15
2023-01-25T21:06:52.176Z,-1.23
2023-01-25T21:09:18.451Z,-1.21
2023-01-25T21:11:44.757Z,-1.22
2023-01-25T21:14:11.104Z,-1.22
2023-01-25T21:16:38.873Z,-1.33
2023-01-25T21:19:06.027Z,-1.39
2023-01-25T21:21:32.882Z,-1.39
2023-01-25T21:23:59.857Z,-1.35
2023-01-25T21:26:27.305Z,-1.32
2023-01-25T21:28:54.209Z,-1.25
2023-01-25T21:31:21.029Z,-1.25
2023-01-25T21:33:48.861Z,-1.24
2023-01-25T21:36:15.856Z,-1.23
2023-01-25T21:38:42.719Z,-1.25
2023-01-25T21:41:10.797Z,-1.22
2023-01-25T21:43:37.482Z,-1.16
2023-01-25T21:46:03.893Z,-1.10
2023-01-25T21:48:30.182Z,-1.06
2023-01-25T21:50:59.179Z,-1.03
2023-01-25T21:53:25.499Z,-1.05
2023-01-25T21:55:54.809Z,-1.01
2023-01-25T21:58:21.131Z,-1.04
2023-01-25T22:00:47.426Z,-1.05
2023-01-25T22:03:13.746Z,-1.01
2023-01-25T22:05:40.050Z,-1.01
2023-01-25T22:08:07.751Z,-1.03
2023-01-25T22:10:34.242Z,-1.06
2023-01-25T22:13:00.561Z,-1.07
2023-01-25T22:15:26.964Z,-1.04
2023-01-25T22:17:53.296Z,-1.03
2023-01-25T22:20:19.608Z,-1.04
2023-01-25T22:22:45.891Z,-1.04
2023-01-25T22:25:13.618Z,-1.05
2023-01-25T22:27:44.598Z,-1.07
2023-01-25T22:30:11.772Z,-1.10
2023-01-25T22:32:38.258Z,-1.12
2023-01-25T22:35:04.845Z,-1.11
2023-01-25T22:37:33.873Z,-1.12
2023-01-25T22:40:00.273Z,-1.10
2023-01-25T22:42:27.943Z,-1.08
2023-01-25T22:44:54.266Z,-1.08
2023-01-25T22:47:20.574Z,-1.09
2023-01-25T22:49:46.889Z,-1.08
2023-01-25T22:52:13.247Z,-1.11
2023-01-25T22:54:39.601Z,-1.07
2023-01-25T22:57:05.925Z,-1.07
2023-01-25T22:59:33.560Z,-1.06
2023-01-25T23:01:59.884Z,-1.08
2023-01-25T23:04:26.334Z,-1.08
2023-01-25T23:06:52.660Z,-1.03
2023-01-25T23:09:18.980Z,-1.06
2023-01-25T23:11:45.299Z,-1.07
2023-01-25T23:14:11.956Z,-1.07
2023-01-25T23:16:39.609Z,-1.05
2023-01-25T23:19:05.948Z,-1.06
2023-01-25T23:21:32.373Z,-1.06
2023-01-25T23:23:59.578Z,-1.06
2023-01-25T23:26:25.971Z,-1.10
2023-01-25T23:28:52.996Z,-1.07
2023-01-25T23:31:20.679Z,-1.08
2023-01-25T23:33:49.091Z,-1.10
2023-01-25T23:36:16.362Z,-1.09
2023-01-25T23:38:43.019Z,-1.08
2023-01-25T23:41:09.444Z,-1.08
2023-01-25T23:43:36.057Z,-1.08
2023-01-25T23:46:02.597Z,-1.08
2023-01-25T23:48:28.907Z,-1.09
2023-01-25T23:50:56.917Z,-1.07
2023-01-25T23:53:23.758Z,-1.08
2023-01-25T23:55:52.884Z,-1.05
2023-01-25T23:58:19.278Z,-1.04
